DRZR

Zinder Airport

Zinder, Niger
METAR DRZR 181800Z 32006KT 9999 TS FEW040CB 30/21 Q1011
Observed Flight Rules
Aug-18 @ 18:00 UTC (6 hours ago) Visual Flight Rules
Wind Visibility Clouds Conditions
320° at 6 knots 10,000+ meters
  • Few at 4,000' AGL
  • Thunderstorm
Temperatures Readings
Current 30°C / 86°F
Dewpoint 21°C / 70°F
Humidity 59%
Altimeter 29.85" Hg
Pressure 1011 hPa
Elevation 453
METAR DRZR 181800Z 32006KT 9999 TS FEW040CB 30/21 Q1011
Observed Flight Rules
Aug-18 @ 18:00 UTC
(6 hours ago)
VFR
Wind Visibility
320° at 6 knots 10,000+ meters
Clouds
  • Few at 4,000' AGL
Conditions
  • Thunderstorm
Temperature Dewpoint
30°C / 86°F 21°C / 70°F
Humidity Altimeter Pressure
59% 29.85" Hg 1011 hPa